sensor_id;sensor_type;location;lat;lon;timestamp;pressure;altitude;pressure_sealevel;temperature;humidity
62510;BME280;48558;48.242;11.654;2023-04-25T00:03:13;95614.69;;;7.22;100.00
62510;BME280;48558;48.242;11.654;2023-04-25T00:07:26;95616.66;;;7.31;100.00
62510;BME280;48558;48.242;11.654;2023-04-25T00:11:39;95611.16;;;7.31;100.00
62510;BME280;48558;48.242;11.654;2023-04-25T00:15:52;95601.41;;;7.39;100.00
62510;BME280;48558;48.242;11.654;2023-04-25T00:20:06;95619.56;;;7.27;100.00
62510;BME280;48558;48.242;11.654;2023-04-25T00:24:21;95621.41;;;7.30;100.00
62510;BME280;48558;48.242;11.654;2023-04-25T00:28:34;95611.03;;;7.25;100.00
62510;BME280;48558;48.242;11.654;2023-04-25T00:32:46;95618.81;;;7.45;100.00
62510;BME280;48558;48.242;11.654;2023-04-25T00:36:59;95601.88;;;7.37;100.00
62510;BME280;48558;48.242;11.654;2023-04-25T00:41:14;95618.50;;;7.52;100.00
62510;BME280;48558;48.242;11.654;2023-04-25T00:45:29;95613.16;;;7.39;100.00
62510;BME280;48558;48.242;11.654;2023-04-25T00:49:42;95601.41;;;7.48;100.00
62510;BME280;48558;48.242;11.654;2023-04-25T00:53:54;95594.53;;;7.16;100.00
62510;BME280;48558;48.242;11.654;2023-04-25T00:58:07;95603.06;;;7.09;100.00
62510;BME280;48558;48.242;11.654;2023-04-25T01:02:20;95595.00;;;7.05;100.00
62510;BME280;48558;48.242;11.654;2023-04-25T01:06:33;95591.91;;;7.03;100.00
62510;BME280;48558;48.242;11.654;2023-04-25T01:10:46;95587.78;;;6.90;100.00
62510;BME280;48558;48.242;11.654;2023-04-25T01:15:09;95594.31;;;6.74;100.00
62510;BME280;48558;48.242;11.654;2023-04-25T01:19:23;95589.59;;;6.75;100.00
62510;BME280;48558;48.242;11.654;2023-04-25T01:23:37;95596.94;;;6.78;100.00
62510;BME280;48558;48.242;11.654;2023-04-25T01:27:51;95595.69;;;6.70;100.00
62510;BME280;48558;48.242;11.654;2023-04-25T01:32:05;95588.59;;;6.41;100.00
62510;BME280;48558;48.242;11.654;2023-04-25T01:36:18;95590.63;;;6.10;100.00
62510;BME280;48558;48.242;11.654;2023-04-25T01:40:31;95598.03;;;6.01;100.00
62510;BME280;48558;48.242;11.654;2023-04-25T01:44:45;95591.47;;;5.98;100.00
62510;BME280;48558;48.242;11.654;2023-04-25T01:48:58;95585.84;;;6.02;100.00
62510;BME280;48558;48.242;11.654;2023-04-25T01:53:12;95576.63;;;5.87;100.00
62510;BME280;48558;48.242;11.654;2023-04-25T01:57:26;95581.25;;;5.77;100.00
62510;BME280;48558;48.242;11.654;2023-04-25T02:01:38;95580.53;;;5.55;100.00
62510;BME280;48558;48.242;11.654;2023-04-25T02:05:51;95578.88;;;5.57;100.00
62510;BME280;48558;48.242;11.654;2023-04-25T02:10:04;95580.63;;;5.73;100.00
62510;BME280;48558;48.242;11.654;2023-04-25T02:14:17;95574.28;;;6.07;100.00
62510;BME280;48558;48.242;11.654;2023-04-25T02:18:29;95572.84;;;6.24;100.00
62510;BME280;48558;48.242;11.654;2023-04-25T02:22:43;95557.94;;;6.34;100.00
62510;BME280;48558;48.242;11.654;2023-04-25T02:26:55;95550.91;;;6.24;100.00
62510;BME280;48558;48.242;11.654;2023-04-25T02:31:09;95563.75;;;6.45;100.00
62510;BME280;48558;48.242;11.654;2023-04-25T02:35:31;95568.22;;;6.70;100.00
62510;BME280;48558;48.242;11.654;2023-04-25T02:39:44;95568.69;;;6.77;100.00
62510;BME280;48558;48.242;11.654;2023-04-25T02:43:56;95558.34;;;6.81;100.00
62510;BME280;48558;48.242;11.654;2023-04-25T02:48:19;95552.72;;;6.94;100.00
62510;BME280;48558;48.242;11.654;2023-04-25T02:52:31;95561.25;;;7.14;100.00
62510;BME280;48558;48.242;11.654;2023-04-25T02:56:44;95551.03;;;7.23;100.00
62510;BME280;48558;48.242;11.654;2023-04-25T03:00:56;95546.59;;;7.17;100.00
62510;BME280;48558;48.242;11.654;2023-04-25T03:05:09;95558.34;;;7.36;100.00
62510;BME280;48558;48.242;11.654;2023-04-25T03:09:21;95552.25;;;7.32;100.00
62510;BME280;48558;48.242;11.654;2023-04-25T03:13:34;95539.28;;;7.32;100.00
62510;BME280;48558;48.242;11.654;2023-04-25T03:17:47;95548.41;;;7.38;100.00
62510;BME280;48558;48.242;11.654;2023-04-25T03:21:59;95542.44;;;7.40;100.00
62510;BME280;48558;48.242;11.654;2023-04-25T03:26:22;95549.16;;;7.57;100.00
62510;BME280;48558;48.242;11.654;2023-04-25T03:30:34;95552.06;;;7.35;100.00
62510;BME280;48558;48.242;11.654;2023-04-25T03:34:47;95531.94;;;7.29;100.00
62510;BME280;48558;48.242;11.654;2023-04-25T03:38:59;95547.06;;;7.15;100.00
62510;BME280;48558;48.242;11.654;2023-04-25T03:43:12;95540.97;;;7.11;100.00
62510;BME280;48558;48.242;11.654;2023-04-25T03:47:35;95545.56;;;7.05;100.00
62510;BME280;48558;48.242;11.654;2023-04-25T03:51:48;95499.16;;;6.71;100.00
62510;BME280;48558;48.242;11.654;2023-04-25T03:56:04;95539.91;;;7.00;100.00
62510;BME280;48558;48.242;11.654;2023-04-25T04:00:16;95535.75;;;6.86;100.00
62510;BME280;48558;48.242;11.654;2023-04-25T04:04:29;95534.97;;;6.68;100.00
62510;BME280;48558;48.242;11.654;2023-04-25T04:08:42;95535.00;;;6.95;100.00
62510;BME280;48558;48.242;11.654;2023-04-25T04:12:54;95534.09;;;6.98;100.00
62510;BME280;48558;48.242;11.654;2023-04-25T04:17:07;95541.25;;;6.95;100.00
62510;BME280;48558;48.242;11.654;2023-04-25T04:21:20;95534.56;;;7.05;100.00
62510;BME280;48558;48.242;11.654;2023-04-25T04:25:32;95536.84;;;7.16;100.00
62510;BME280;48558;48.242;11.654;2023-04-25T04:29:45;95531.81;;;7.14;100.00
62510;BME280;48558;48.242;11.654;2023-04-25T04:33:58;95534.88;;;7.16;100.00
62510;BME280;48558;48.242;11.654;2023-04-25T04:38:10;95551.03;;;7.33;100.00
62510;BME280;48558;48.242;11.654;2023-04-25T04:42:23;95539.88;;;7.36;100.00
62510;BME280;48558;48.242;11.654;2023-04-25T04:46:37;95539.25;;;7.41;100.00
62510;BME280;48558;48.242;11.654;2023-04-25T04:50:54;95539.69;;;7.40;100.00
62510;BME280;48558;48.242;11.654;2023-04-25T04:55:07;95544.16;;;7.37;100.00
62510;BME280;48558;48.242;11.654;2023-04-25T04:59:20;95550.88;;;7.27;100.00
62510;BME280;48558;48.242;11.654;2023-04-25T05:03:33;95545.19;;;7.40;100.00
62510;BME280;48558;48.242;11.654;2023-04-25T05:07:46;95544.59;;;7.45;100.00
62510;BME280;48558;48.242;11.654;2023-04-25T05:11:58;95536.38;;;7.27;100.00
62510;BME280;48558;48.242;11.654;2023-04-25T05:16:12;95536.53;;;7.23;100.00
62510;BME280;48558;48.242;11.654;2023-04-25T05:20:25;95532.72;;;7.30;100.00
62510;BME280;48558;48.242;11.654;2023-04-25T05:24:41;95534.38;;;7.27;100.00
62510;BME280;48558;48.242;11.654;2023-04-25T05:28:53;95538.03;;;7.33;100.00
62510;BME280;48558;48.242;11.654;2023-04-25T05:33:06;95540.91;;;7.57;100.00
62510;BME280;48558;48.242;11.654;2023-04-25T05:37:19;95547.91;;;7.67;100.00
62510;BME280;48558;48.242;11.654;2023-04-25T05:41:31;95554.34;;;7.64;100.00
62510;BME280;48558;48.242;11.654;2023-04-25T05:45:44;95549.91;;;7.66;100.00
62510;BME280;48558;48.242;11.654;2023-04-25T05:49:56;95538.00;;;7.51;100.00
62510;BME280;48558;48.242;11.654;2023-04-25T05:54:09;95540.56;;;7.73;100.00
62510;BME280;48558;48.242;11.654;2023-04-25T05:58:22;95540.91;;;7.66;100.00
62510;BME280;48558;48.242;11.654;2023-04-25T06:02:35;95553.56;;;7.63;100.00
62510;BME280;48558;48.242;11.654;2023-04-25T06:06:47;95561.25;;;7.23;100.00
62510;BME280;48558;48.242;11.654;2023-04-25T06:11:00;95559.56;;;7.53;100.00
62510;BME280;48558;48.242;11.654;2023-04-25T06:15:13;95571.19;;;7.30;100.00
62510;BME280;48558;48.242;11.654;2023-04-25T06:19:38;95555.16;;;7.19;100.00
62510;BME280;48558;48.242;11.654;2023-04-25T06:23:51;95558.63;;;6.74;100.00
62510;BME280;48558;48.242;11.654;2023-04-25T06:28:04;95557.13;;;6.82;100.00
62510;BME280;48558;48.242;11.654;2023-04-25T06:32:17;95548.28;;;6.87;100.00
62510;BME280;48558;48.242;11.654;2023-04-25T06:36:30;95549.03;;;7.15;100.00
62510;BME280;48558;48.242;11.654;2023-04-25T06:40:42;95545.50;;;7.60;100.00
62510;BME280;48558;48.242;11.654;2023-04-25T06:44:55;95549.88;;;7.84;100.00
62510;BME280;48558;48.242;11.654;2023-04-25T06:49:07;95556.78;;;7.71;100.00
62510;BME280;48558;48.242;11.654;2023-04-25T06:53:20;95561.38;;;7.56;100.00
62510;BME280;48558;48.242;11.654;2023-04-25T06:57:32;95562.00;;;7.51;100.00
62510;BME280;48558;48.242;11.654;2023-04-25T07:01:45;95564.81;;;8.43;100.00
62510;BME280;48558;48.242;11.654;2023-04-25T07:05:58;95565.25;;;8.75;100.00
62510;BME280;48558;48.242;11.654;2023-04-25T07:10:10;95567.31;;;7.63;100.00
62510;BME280;48558;48.242;11.654;2023-04-25T07:14:23;95565.63;;;7.75;100.00
62510;BME280;48558;48.242;11.654;2023-04-25T07:18:36;95567.94;;;8.27;100.00
62510;BME280;48558;48.242;11.654;2023-04-25T07:22:48;95559.06;;;8.56;100.00
62510;BME280;48558;48.242;11.654;2023-04-25T07:27:02;95547.03;;;8.44;100.00
62510;BME280;48558;48.242;11.654;2023-04-25T07:31:14;95557.09;;;8.15;100.00
62510;BME280;48558;48.242;11.654;2023-04-25T07:35:29;95549.94;;;8.74;100.00
62510;BME280;48558;48.242;11.654;2023-04-25T07:39:50;95548.59;;;8.93;100.00
62510;BME280;48558;48.242;11.654;2023-04-25T07:44:03;95537.56;;;8.69;100.00
62510;BME280;48558;48.242;11.654;2023-04-25T07:48:18;95546.59;;;8.93;100.00
62510;BME280;48558;48.242;11.654;2023-04-25T07:52:31;95548.75;;;8.89;100.00
62510;BME280;48558;48.242;11.654;2023-04-25T07:56:43;95530.97;;;9.14;100.00
62510;BME280;48558;48.242;11.654;2023-04-25T08:01:03;95529.59;;;8.95;100.00
62510;BME280;48558;48.242;11.654;2023-04-25T08:05:16;95533.56;;;8.94;100.00
62510;BME280;48558;48.242;11.654;2023-04-25T08:09:33;95542.34;;;9.45;100.00
62510;BME280;48558;48.242;11.654;2023-04-25T08:13:47;95533.31;;;9.74;100.00
62510;BME280;48558;48.242;11.654;2023-04-25T08:18:10;95537.69;;;10.24;100.00
62510;BME280;48558;48.242;11.654;2023-04-25T08:22:23;95527.66;;;10.76;100.00
62510;BME280;48558;48.242;11.654;2023-04-25T08:26:35;95538.56;;;11.25;100.00
62510;BME280;48558;48.242;11.654;2023-04-25T08:30:49;95534.81;;;10.88;100.00
62510;BME280;48558;48.242;11.654;2023-04-25T08:35:02;95534.06;;;10.33;100.00
62510;BME280;48558;48.242;11.654;2023-04-25T08:39:14;95545.97;;;9.80;100.00
62510;BME280;48558;48.242;11.654;2023-04-25T08:43:29;95551.47;;;9.51;100.00
62510;BME280;48558;48.242;11.654;2023-04-25T08:47:43;95555.44;;;9.35;100.00
62510;BME280;48558;48.242;11.654;2023-04-25T08:52:00;95564.84;;;9.29;100.00
62510;BME280;48558;48.242;11.654;2023-04-25T08:56:16;95551.50;;;10.59;100.00
62510;BME280;48558;48.242;11.654;2023-04-25T09:00:29;95539.78;;;11.24;100.00
62510;BME280;48558;48.242;11.654;2023-04-25T09:04:45;95543.72;;;12.15;99.17
62510;BME280;48558;48.242;11.654;2023-04-25T09:09:05;95533.09;;;11.57;90.78
62510;BME280;48558;48.242;11.654;2023-04-25T09:13:29;95535.91;;;11.36;96.08
62510;BME280;48558;48.242;11.654;2023-04-25T09:17:58;95537.75;;;11.19;100.00
62510;BME280;48558;48.242;11.654;2023-04-25T09:22:11;95540.34;;;12.31;88.89
62510;BME280;48558;48.242;11.654;2023-04-25T09:26:25;95538.16;;;11.12;89.52
62510;BME280;48558;48.242;11.654;2023-04-25T09:30:38;95557.22;;;12.33;81.15
62510;BME280;48558;48.242;11.654;2023-04-25T09:34:52;95551.00;;;11.61;85.15
62510;BME280;48558;48.242;11.654;2023-04-25T09:39:12;95555.44;;;10.87;95.48
62510;BME280;48558;48.242;11.654;2023-04-25T09:43:27;95563.16;;;11.43;93.17
62510;BME280;48558;48.242;11.654;2023-04-25T09:47:40;95559.69;;;12.99;86.11
62510;BME280;48558;48.242;11.654;2023-04-25T09:51:56;95558.94;;;13.04;68.69
62510;BME280;48558;48.242;11.654;2023-04-25T09:56:11;95555.91;;;13.50;63.51
62510;BME280;48558;48.242;11.654;2023-04-25T10:00:24;95549.94;;;14.12;62.73
62510;BME280;48558;48.242;11.654;2023-04-25T10:04:38;95544.44;;;12.78;63.70
62510;BME280;48558;48.242;11.654;2023-04-25T10:08:51;95548.25;;;12.44;81.17
62510;BME280;48558;48.242;11.654;2023-04-25T10:13:06;95547.25;;;11.84;78.81
62510;BME280;48558;48.242;11.654;2023-04-25T10:17:20;95538.66;;;12.39;73.36
62510;BME280;48558;48.242;11.654;2023-04-25T10:21:33;95522.69;;;14.22;67.51
62510;BME280;48558;48.242;11.654;2023-04-25T10:25:48;95543.63;;;13.95;63.44
62510;BME280;48558;48.242;11.654;2023-04-25T10:30:15;95538.00;;;13.03;74.66
62510;BME280;48558;48.242;11.654;2023-04-25T10:34:39;95536.34;;;12.74;69.25
62510;BME280;48558;48.242;11.654;2023-04-25T10:39:06;95546.19;;;12.39;71.13
62510;BME280;48558;48.242;11.654;2023-04-25T10:43:45;95544.75;;;12.12;75.08
62510;BME280;48558;48.242;11.654;2023-04-25T10:48:00;95551.91;;;11.07;96.27
62510;BME280;48558;48.242;11.654;2023-04-25T10:56:41;95591.91;;;8.59;100.00
62510;BME280;48558;48.242;11.654;2023-04-25T11:00:56;95587.50;;;8.86;100.00
62510;BME280;48558;48.242;11.654;2023-04-25T11:05:09;95588.03;;;8.99;100.00
62510;BME280;48558;48.242;11.654;2023-04-25T11:09:24;95598.50;;;10.00;100.00
62510;BME280;48558;48.242;11.654;2023-04-25T11:13:37;95617.06;;;9.85;100.00
62510;BME280;48558;48.242;11.654;2023-04-25T11:17:54;95626.47;;;9.93;100.00
62510;BME280;48558;48.242;11.654;2023-04-25T11:22:07;95641.44;;;9.49;100.00
62510;BME280;48558;48.242;11.654;2023-04-25T11:26:20;95654.63;;;8.64;100.00
62510;BME280;48558;48.242;11.654;2023-04-25T11:30:32;95652.03;;;8.01;100.00
62510;BME280;48558;48.242;11.654;2023-04-25T11:34:46;95663.38;;;7.94;100.00
62510;BME280;48558;48.242;11.654;2023-04-25T11:38:58;95657.13;;;7.93;100.00
62510;BME280;48558;48.242;11.654;2023-04-25T11:43:12;95657.28;;;7.63;100.00
62510;BME280;48558;48.242;11.654;2023-04-25T11:47:31;95668.72;;;7.97;100.00
62510;BME280;48558;48.242;11.654;2023-04-25T11:51:46;95656.72;;;8.79;100.00
62510;BME280;48558;48.242;11.654;2023-04-25T11:55:59;95658.03;;;9.78;100.00
62510;BME280;48558;48.242;11.654;2023-04-25T12:00:13;95670.34;;;10.79;100.00
62510;BME280;48558;48.242;11.654;2023-04-25T12:04:30;95670.22;;;10.24;100.00
62510;BME280;48558;48.242;11.654;2023-04-25T12:09:01;95667.91;;;10.23;100.00
62510;BME280;48558;48.242;11.654;2023-04-25T12:13:22;95682.31;;;10.56;100.00
62510;BME280;48558;48.242;11.654;2023-04-25T12:17:35;95685.38;;;9.90;100.00
62510;BME280;48558;48.242;11.654;2023-04-25T12:21:50;95709.00;;;8.46;100.00
62510;BME280;48558;48.242;11.654;2023-04-25T12:26:06;95703.97;;;7.27;100.00
62510;BME280;48558;48.242;11.654;2023-04-25T12:30:29;95714.38;;;7.41;100.00
62510;BME280;48558;48.242;11.654;2023-04-25T12:34:41;95715.50;;;7.88;100.00
62510;BME280;48558;48.242;11.654;2023-04-25T12:38:54;95711.97;;;8.06;100.00
62510;BME280;48558;48.242;11.654;2023-04-25T12:43:06;95719.16;;;8.82;100.00
62510;BME280;48558;48.242;11.654;2023-04-25T12:47:19;95712.63;;;8.61;100.00
62510;BME280;48558;48.242;11.654;2023-04-25T12:51:31;95714.72;;;7.88;100.00
62510;BME280;48558;48.242;11.654;2023-04-25T12:55:46;95736.41;;;8.22;100.00
62510;BME280;48558;48.242;11.654;2023-04-25T12:59:59;95737.47;;;7.61;100.00
62510;BME280;48558;48.242;11.654;2023-04-25T13:04:20;95749.03;;;7.29;100.00
62510;BME280;48558;48.242;11.654;2023-04-25T13:08:33;95743.53;;;6.80;100.00
62510;BME280;48558;48.242;11.654;2023-04-25T13:12:47;95758.72;;;7.03;100.00
62510;BME280;48558;48.242;11.654;2023-04-25T13:16:59;95761.16;;;7.01;100.00
62510;BME280;48558;48.242;11.654;2023-04-25T13:21:12;95770.53;;;7.21;100.00
62510;BME280;48558;48.242;11.654;2023-04-25T13:25:25;95764.59;;;7.23;100.00
62510;BME280;48558;48.242;11.654;2023-04-25T13:29:38;95773.53;;;7.05;100.00
62510;BME280;48558;48.242;11.654;2023-04-25T13:33:52;95768.59;;;6.91;100.00
62510;BME280;48558;48.242;11.654;2023-04-25T13:38:15;95762.13;;;6.85;100.00
62510;BME280;48558;48.242;11.654;2023-04-25T13:42:38;95760.53;;;6.66;100.00
62510;BME280;48558;48.242;11.654;2023-04-25T13:46:50;95745.72;;;7.03;100.00
62510;BME280;48558;48.242;11.654;2023-04-25T13:51:03;95759.78;;;7.63;100.00
62510;BME280;48558;48.242;11.654;2023-04-25T13:55:15;95763.31;;;7.91;100.00
62510;BME280;48558;48.242;11.654;2023-04-25T13:59:28;95757.81;;;7.73;100.00
62510;BME280;48558;48.242;11.654;2023-04-25T14:03:40;95753.69;;;8.05;100.00
62510;BME280;48558;48.242;11.654;2023-04-25T14:07:53;95749.56;;;7.91;100.00
62510;BME280;48558;48.242;11.654;2023-04-25T14:12:06;95762.69;;;7.51;100.00
62510;BME280;48558;48.242;11.654;2023-04-25T14:16:19;95761.63;;;7.75;100.00
62510;BME280;48558;48.242;11.654;2023-04-25T14:20:31;95762.09;;;7.83;100.00
62510;BME280;48558;48.242;11.654;2023-04-25T14:24:44;95763.75;;;7.98;100.00
62510;BME280;48558;48.242;11.654;2023-04-25T14:28:58;95768.97;;;8.06;100.00
62510;BME280;48558;48.242;11.654;2023-04-25T14:33:10;95772.31;;;7.82;100.00
62510;BME280;48558;48.242;11.654;2023-04-25T14:37:23;95781.22;;;8.14;100.00
62510;BME280;48558;48.242;11.654;2023-04-25T14:41:36;95785.03;;;7.98;100.00
62510;BME280;48558;48.242;11.654;2023-04-25T14:45:48;95790.97;;;8.24;100.00
62510;BME280;48558;48.242;11.654;2023-04-25T14:50:11;95789.56;;;8.74;100.00
62510;BME280;48558;48.242;11.654;2023-04-25T14:54:23;95796.56;;;8.93;100.00
62510;BME280;48558;48.242;11.654;2023-04-25T14:58:36;95801.94;;;8.78;100.00
62510;BME280;48558;48.242;11.654;2023-04-25T15:02:49;95796.44;;;8.78;100.00
62510;BME280;48558;48.242;11.654;2023-04-25T15:07:01;95817.72;;;9.28;100.00
62510;BME280;48558;48.242;11.654;2023-04-25T15:11:25;95815.97;;;9.40;100.00
62510;BME280;48558;48.242;11.654;2023-04-25T15:15:37;95815.63;;;9.05;100.00
62510;BME280;48558;48.242;11.654;2023-04-25T15:20:00;95824.47;;;8.68;100.00
62510;BME280;48558;48.242;11.654;2023-04-25T15:24:12;95829.13;;;9.03;100.00
62510;BME280;48558;48.242;11.654;2023-04-25T15:28:27;95836.06;;;9.64;100.00
62510;BME280;48558;48.242;11.654;2023-04-25T15:32:39;95836.69;;;8.76;100.00
62510;BME280;48558;48.242;11.654;2023-04-25T15:36:52;95838.72;;;8.48;100.00
62510;BME280;48558;48.242;11.654;2023-04-25T15:41:05;95840.09;;;8.34;100.00
62510;BME280;48558;48.242;11.654;2023-04-25T15:45:19;95846.78;;;8.24;100.00
62510;BME280;48558;48.242;11.654;2023-04-25T15:49:35;95842.22;;;8.30;100.00
62510;BME280;48558;48.242;11.654;2023-04-25T15:53:47;95848.34;;;8.52;100.00
62510;BME280;48558;48.242;11.654;2023-04-25T15:58:00;95850.00;;;8.23;100.00
62510;BME280;48558;48.242;11.654;2023-04-25T16:02:13;95848.19;;;8.38;100.00
62510;BME280;48558;48.242;11.654;2023-04-25T16:06:26;95831.81;;;8.07;100.00
62510;BME280;48558;48.242;11.654;2023-04-25T16:10:38;95844.63;;;8.10;100.00
62510;BME280;48558;48.242;11.654;2023-04-25T16:14:51;95840.25;;;8.31;100.00
62510;BME280;48558;48.242;11.654;2023-04-25T16:19:03;95847.72;;;8.39;100.00
62510;BME280;48558;48.242;11.654;2023-04-25T16:23:16;95850.44;;;8.21;100.00
62510;BME280;48558;48.242;11.654;2023-04-25T16:27:39;95864.78;;;7.80;100.00
62510;BME280;48558;48.242;11.654;2023-04-25T16:31:52;95859.31;;;7.98;100.00
62510;BME280;48558;48.242;11.654;2023-04-25T16:36:05;95854.78;;;8.40;100.00
62510;BME280;48558;48.242;11.654;2023-04-25T16:40:19;95865.94;;;8.55;100.00
62510;BME280;48558;48.242;11.654;2023-04-25T16:44:32;95868.38;;;8.26;100.00
62510;BME280;48558;48.242;11.654;2023-04-25T16:48:44;95874.19;;;8.64;100.00
62510;BME280;48558;48.242;11.654;2023-04-25T16:52:59;95871.59;;;8.33;100.00
62510;BME280;48558;48.242;11.654;2023-04-25T16:57:12;95894.16;;;8.01;100.00
62510;BME280;48558;48.242;11.654;2023-04-25T17:01:25;95893.16;;;8.26;100.00
62510;BME280;48558;48.242;11.654;2023-04-25T17:05:53;95893.78;;;8.57;100.00
62510;BME280;48558;48.242;11.654;2023-04-25T17:10:09;95899.69;;;8.19;100.00
62510;BME280;48558;48.242;11.654;2023-04-25T17:14:21;95894.16;;;8.01;100.00
62510;BME280;48558;48.242;11.654;2023-04-25T17:18:34;95914.03;;;8.14;100.00
62510;BME280;48558;48.242;11.654;2023-04-25T17:22:47;95911.59;;;7.98;100.00
62510;BME280;48558;48.242;11.654;2023-04-25T17:27:00;95923.94;;;7.93;100.00
62510;BME280;48558;48.242;11.654;2023-04-25T17:31:14;95924.38;;;7.92;100.00
62510;BME280;48558;48.242;11.654;2023-04-25T17:35:28;95934.72;;;7.70;100.00
62510;BME280;48558;48.242;11.654;2023-04-25T17:39:41;95935.69;;;7.94;100.00
62510;BME280;48558;48.242;11.654;2023-04-25T17:43:54;95938.41;;;7.85;100.00
62510;BME280;48558;48.242;11.654;2023-04-25T17:48:07;95930.13;;;7.76;100.00
62510;BME280;48558;48.242;11.654;2023-04-25T17:52:19;95951.72;;;7.77;100.00
62510;BME280;48558;48.242;11.654;2023-04-25T17:56:35;95965.22;;;7.63;100.00
62510;BME280;48558;48.242;11.654;2023-04-25T18:00:48;95962.31;;;7.05;100.00
62510;BME280;48558;48.242;11.654;2023-04-25T18:05:02;95983.53;;;6.70;100.00
62510;BME280;48558;48.242;11.654;2023-04-25T18:09:20;95988.75;;;6.21;100.00
62510;BME280;48558;48.242;11.654;2023-04-25T18:13:34;95985.53;;;6.23;100.00
62510;BME280;48558;48.242;11.654;2023-04-25T18:17:48;95972.91;;;6.25;100.00
62510;BME280;48558;48.242;11.654;2023-04-25T18:22:01;95992.16;;;6.13;100.00
62510;BME280;48558;48.242;11.654;2023-04-25T18:26:14;95998.06;;;6.24;100.00
62510;BME280;48558;48.242;11.654;2023-04-25T18:30:27;96018.69;;;6.28;100.00
62510;BME280;48558;48.242;11.654;2023-04-25T18:34:39;96025.28;;;6.31;100.00
62510;BME280;48558;48.242;11.654;2023-04-25T18:39:05;96029.34;;;6.26;100.00
62510;BME280;48558;48.242;11.654;2023-04-25T18:43:33;96036.16;;;6.22;100.00
62510;BME280;48558;48.242;11.654;2023-04-25T18:47:45;96038.91;;;6.22;100.00
62510;BME280;48558;48.242;11.654;2023-04-25T18:51:58;96047.44;;;6.24;100.00
62510;BME280;48558;48.242;11.654;2023-04-25T18:56:11;96046.56;;;6.14;100.00
62510;BME280;48558;48.242;11.654;2023-04-25T19:00:27;96059.16;;;6.24;100.00
62510;BME280;48558;48.242;11.654;2023-04-25T19:04:50;96065.09;;;6.23;100.00
62510;BME280;48558;48.242;11.654;2023-04-25T19:09:02;96058.63;;;6.17;100.00
62510;BME280;48558;48.242;11.654;2023-04-25T19:13:15;96052.03;;;6.02;100.00
62510;BME280;48558;48.242;11.654;2023-04-25T19:17:37;96051.56;;;5.78;100.00
62510;BME280;48558;48.242;11.654;2023-04-25T19:21:50;96073.19;;;5.76;100.00
62510;BME280;48558;48.242;11.654;2023-04-25T19:26:03;96071.13;;;5.93;100.00
62510;BME280;48558;48.242;11.654;2023-04-25T19:30:16;96081.13;;;5.99;100.00
62510;BME280;48558;48.242;11.654;2023-04-25T19:34:28;96079.94;;;6.13;100.00
62510;BME280;48558;48.242;11.654;2023-04-25T19:38:41;96074.66;;;6.06;100.00
62510;BME280;48558;48.242;11.654;2023-04-25T19:42:54;96083.00;;;6.15;100.00
62510;BME280;48558;48.242;11.654;2023-04-25T19:47:07;96081.78;;;6.28;100.00
62510;BME280;48558;48.242;11.654;2023-04-25T19:51:29;96072.91;;;6.37;100.00
62510;BME280;48558;48.242;11.654;2023-04-25T19:55:43;96071.44;;;6.45;100.00
62510;BME280;48558;48.242;11.654;2023-04-25T19:59:55;96083.06;;;6.49;100.00
62510;BME280;48558;48.242;11.654;2023-04-25T20:04:18;96077.38;;;6.43;100.00
62510;BME280;48558;48.242;11.654;2023-04-25T20:08:30;96068.81;;;6.41;100.00
62510;BME280;48558;48.242;11.654;2023-04-25T20:12:43;96079.81;;;6.29;100.00
62510;BME280;48558;48.242;11.654;2023-04-25T20:16:56;96083.53;;;6.35;100.00
62510;BME280;48558;48.242;11.654;2023-04-25T20:21:08;96081.66;;;6.32;100.00
62510;BME280;48558;48.242;11.654;2023-04-25T20:25:22;96077.53;;;6.15;100.00
62510;BME280;48558;48.242;11.654;2023-04-25T20:29:35;96075.53;;;6.28;100.00
62510;BME280;48558;48.242;11.654;2023-04-25T20:33:47;96091.22;;;6.27;100.00
62510;BME280;48558;48.242;11.654;2023-04-25T20:38:10;96086.28;;;6.35;100.00
62510;BME280;48558;48.242;11.654;2023-04-25T20:42:23;96093.75;;;6.22;100.00
62510;BME280;48558;48.242;11.654;2023-04-25T20:46:42;96079.69;;;6.32;100.00
62510;BME280;48558;48.242;11.654;2023-04-25T20:50:55;96084.28;;;6.48;100.00
62510;BME280;48558;48.242;11.654;2023-04-25T20:55:09;96082.09;;;6.43;100.00
62510;BME280;48558;48.242;11.654;2023-04-25T20:59:22;96087.47;;;6.34;100.00
62510;BME280;48558;48.242;11.654;2023-04-25T21:03:46;96090.66;;;6.45;100.00
62510;BME280;48558;48.242;11.654;2023-04-25T21:08:00;96096.91;;;6.45;100.00
62510;BME280;48558;48.242;11.654;2023-04-25T21:12:13;96100.13;;;6.44;100.00
62510;BME280;48558;48.242;11.654;2023-04-25T21:16:25;96103.09;;;6.37;100.00
62510;BME280;48558;48.242;11.654;2023-04-25T21:20:38;96107.03;;;6.48;100.00
62510;BME280;48558;48.242;11.654;2023-04-25T21:24:50;96107.78;;;6.49;100.00
62510;BME280;48558;48.242;11.654;2023-04-25T21:29:05;96112.41;;;6.52;100.00
62510;BME280;48558;48.242;11.654;2023-04-25T21:33:17;96123.59;;;6.45;100.00
62510;BME280;48558;48.242;11.654;2023-04-25T21:37:40;96113.03;;;6.56;100.00
62510;BME280;48558;48.242;11.654;2023-04-25T21:41:53;96115.25;;;6.36;100.00
62510;BME280;48558;48.242;11.654;2023-04-25T21:46:06;96105.38;;;6.26;100.00
62510;BME280;48558;48.242;11.654;2023-04-25T21:50:22;96104.84;;;6.31;100.00
62510;BME280;48558;48.242;11.654;2023-04-25T21:54:36;96116.34;;;6.38;100.00
62510;BME280;48558;48.242;11.654;2023-04-25T21:58:49;96117.88;;;6.27;100.00
62510;BME280;48558;48.242;11.654;2023-04-25T22:03:02;96108.44;;;6.53;100.00
62510;BME280;48558;48.242;11.654;2023-04-25T22:07:24;96119.31;;;6.44;100.00
62510;BME280;48558;48.242;11.654;2023-04-25T22:11:37;96110.00;;;6.41;100.00
62510;BME280;48558;48.242;11.654;2023-04-25T22:15:51;96126.56;;;6.38;100.00